createdAt,value
2017-09-13T06:20:46.992Z,59.4
2017-09-13T06:21:47.625Z,63.7
2017-09-13T06:22:48.360Z,65.9
2017-09-13T06:23:48.996Z,67.2
2017-09-13T06:24:49.633Z,68.8
2017-09-13T06:25:50.371Z,68.9
2017-09-13T06:26:51.011Z,67.0
2017-09-13T06:27:51.648Z,64.4
2017-09-13T06:28:52.290Z,62.5
2017-09-13T06:29:52.930Z,61.4
2017-09-13T06:30:53.570Z,60.0
2017-09-13T06:31:54.215Z,58.3
2017-09-13T06:32:54.851Z,57.4
2017-09-13T06:33:55.500Z,56.6
2017-09-13T06:34:56.142Z,56.0
2017-09-13T06:35:56.783Z,55.5
2017-09-13T06:36:57.425Z,55.6
2017-09-13T06:37:58.065Z,55.1
2017-09-13T06:38:58.708Z,55.0
2017-09-13T06:39:59.700Z,54.6
2017-09-13T06:41:00.593Z,54.8
2017-09-13T06:42:01.235Z,55.6
2017-09-13T06:43:01.879Z,54.8
2017-09-13T06:44:02.522Z,56.0
2017-09-13T06:45:03.166Z,55.0
2017-09-13T06:46:03.908Z,55.0
2017-09-13T06:47:04.651Z,54.7
2017-09-13T06:48:05.292Z,55.1
2017-09-13T06:49:05.934Z,55.9
2017-09-13T06:50:06.577Z,55.5
2017-09-13T06:51:07.220Z,54.9
2017-09-13T06:52:07.869Z,54.9
2017-09-13T06:53:08.511Z,54.8
2017-09-13T06:54:09.156Z,54.4
2017-09-13T06:55:09.798Z,54.1
2017-09-13T06:56:10.442Z,53.3
2017-09-13T06:57:11.084Z,53.1
2017-09-13T06:58:11.727Z,53.4
2017-09-13T06:59:12.370Z,52.9
2017-09-13T07:00:13.015Z,52.7
2017-09-13T07:01:13.658Z,52.9
2017-09-13T07:02:14.303Z,52.9
2017-09-13T07:03:14.946Z,52.6
2017-09-13T07:04:15.590Z,52.8
2017-09-13T07:05:16.245Z,52.8
2017-09-13T07:06:16.885Z,53.0
2017-09-13T07:07:17.529Z,53.5
2017-09-13T07:08:18.173Z,53.4
2017-09-13T07:09:18.818Z,53.3
2017-09-13T07:10:19.462Z,53.2
2017-09-13T07:11:20.106Z,53.3
2017-09-13T07:12:20.762Z,53.3
2017-09-13T07:13:21.405Z,53.3
2017-09-13T07:14:22.048Z,53.1
2017-09-13T07:15:22.690Z,53.4
2017-09-13T07:16:23.335Z,53.4
2017-09-13T07:17:23.976Z,53.5
2017-09-13T07:18:24.622Z,53.8
2017-09-13T07:19:25.265Z,53.7
2017-09-13T07:20:26.109Z,54.3
2017-09-13T07:21:26.752Z,54.2
2017-09-13T07:22:27.395Z,54.1
2017-09-13T07:23:28.141Z,54.2
2017-09-13T07:24:28.787Z,54.5
2017-09-13T07:25:29.531Z,54.8
2017-09-13T07:26:30.180Z,54.7
2017-09-13T07:27:30.819Z,54.6
2017-09-13T07:28:31.463Z,55.1
2017-09-13T07:29:32.105Z,55.1
2017-09-13T07:30:32.753Z,56.0
2017-09-13T07:31:33.494Z,55.0
2017-09-13T07:32:34.139Z,55.7
2017-09-13T07:33:34.785Z,55.7
2017-09-13T07:34:35.428Z,55.8
2017-09-13T07:35:36.075Z,56.1
2017-09-13T07:36:36.717Z,56.0
2017-09-13T07:37:37.380Z,56.3
2017-09-13T07:38:38.024Z,55.9
2017-09-13T07:39:38.666Z,56.4
2017-09-13T07:40:39.310Z,56.3
2017-09-13T07:41:39.955Z,56.5
2017-09-13T07:42:40.597Z,56.2
2017-09-13T07:43:41.243Z,56.7
2017-09-13T07:44:41.887Z,56.7
2017-09-13T07:45:42.532Z,57.1
2017-09-13T07:46:43.626Z,56.8
2017-09-13T07:47:44.619Z,56.6
2017-09-13T07:48:45.268Z,56.6
2017-09-13T07:49:45.907Z,56.7
2017-09-13T07:50:46.701Z,57.0
2017-09-13T07:51:47.345Z,57.5
2017-09-13T07:52:47.988Z,56.9
2017-09-13T07:53:48.633Z,57.1
2017-09-13T07:54:49.275Z,57.2
2017-09-13T07:55:49.920Z,57.1
2017-09-13T07:56:50.567Z,57.1
2017-09-13T07:57:51.210Z,57.1
2017-09-13T07:58:51.855Z,57.5
2017-09-13T07:59:52.500Z,57.2
2017-09-13T08:00:53.173Z,57.1
2017-09-13T08:01:53.790Z,57.1
2017-09-13T08:02:54.535Z,57.3
2017-09-13T08:03:55.429Z,57.3
2017-09-13T08:04:56.070Z,57.2
2017-09-13T08:05:56.715Z,57.3
2017-09-13T08:06:57.359Z,57.3
2017-09-13T08:07:58.014Z,57.3
2017-09-13T08:08:58.651Z,56.8
2017-09-13T08:09:59.298Z,57.2
2017-09-13T08:10:59.941Z,56.9
2017-09-13T08:12:00.586Z,57.0
2017-09-13T08:13:01.229Z,57.4
2017-09-13T08:14:01.875Z,57.5
2017-09-13T08:15:02.518Z,57.5
2017-09-13T08:16:03.164Z,57.2
2017-09-13T08:17:03.806Z,56.9
2017-09-13T08:18:04.451Z,57.3
2017-09-13T08:19:05.347Z,57.0
2017-09-13T08:20:05.989Z,58.1
2017-09-13T08:21:06.982Z,57.4
2017-09-13T08:22:07.628Z,57.5
2017-09-13T08:23:08.372Z,56.7
2017-09-13T08:24:09.015Z,56.2
2017-09-13T08:25:09.758Z,55.2
2017-09-13T08:26:10.402Z,54.8
2017-09-13T08:27:11.047Z,54.9
2017-09-13T08:28:11.791Z,54.2
2017-09-13T08:29:12.433Z,54.3
2017-09-13T08:30:13.078Z,54.5
2017-09-13T08:31:13.922Z,53.9
2017-09-13T08:32:14.567Z,53.8
2017-09-13T08:33:15.211Z,54.0
2017-09-13T08:34:15.856Z,54.1
2017-09-13T08:35:16.499Z,54.2
2017-09-13T08:36:17.141Z,54.2
2017-09-13T08:37:17.785Z,53.8
2017-09-13T08:38:18.428Z,54.1
2017-09-13T08:39:19.073Z,54.2
2017-09-13T08:40:19.716Z,54.2
2017-09-13T08:41:20.459Z,53.8
2017-09-13T08:42:21.104Z,53.4
2017-09-13T08:43:21.756Z,53.4
2017-09-13T08:44:22.401Z,53.3
2017-09-13T08:45:23.046Z,53.2
2017-09-13T08:46:23.695Z,53.2
2017-09-13T08:47:24.439Z,53.2
2017-09-13T08:48:25.084Z,53.4
2017-09-13T08:49:25.727Z,53.4
2017-09-13T08:50:26.372Z,53.7
2017-09-13T08:51:27.017Z,53.2
2017-09-13T08:52:27.661Z,53.5
2017-09-13T08:53:28.306Z,53.4
2017-09-13T08:54:28.952Z,52.9
2017-09-13T08:55:29.596Z,53.3
2017-09-13T08:56:30.243Z,53.3
2017-09-13T08:57:30.886Z,53.1
2017-09-13T08:58:31.532Z,53.1
2017-09-13T08:59:32.178Z,53.4
2017-09-13T09:00:32.822Z,53.3
2017-09-13T09:01:33.467Z,53.4
2017-09-13T09:02:34.211Z,53.3
2017-09-13T09:03:34.855Z,53.3
2017-09-13T09:04:35.499Z,53.3
2017-09-13T09:05:36.243Z,53.5
2017-09-13T09:06:36.887Z,53.3
2017-09-13T09:07:37.534Z,53.5
2017-09-13T09:08:38.177Z,53.1
2017-09-13T09:09:38.822Z,53.3
2017-09-13T09:10:39.466Z,53.5
2017-09-13T09:11:40.112Z,53.5
2017-09-13T09:12:40.757Z,53.5
2017-09-13T09:13:41.402Z,52.6
2017-09-13T09:14:42.049Z,52.6
2017-09-13T09:15:42.693Z,52.5
2017-09-13T09:16:43.338Z,53.2
2017-09-13T09:17:43.983Z,53.3
2017-09-13T09:18:44.729Z,53.3
2017-09-13T09:19:45.380Z,53.3
2017-09-13T09:20:46.174Z,53.4
2017-09-13T09:21:46.823Z,53.3
2017-09-13T09:22:47.670Z,53.2
2017-09-13T09:23:48.312Z,53.3
2017-09-13T09:24:49.157Z,53.5
2017-09-13T09:25:49.801Z,53.4
2017-09-13T09:26:50.447Z,53.3
2017-09-13T09:27:51.091Z,52.6
2017-09-13T09:28:51.737Z,53.3
2017-09-13T09:29:52.381Z,53.3
2017-09-13T09:30:53.277Z,53.3
2017-09-13T09:31:53.920Z,52.9
2017-09-13T09:32:54.563Z,53.2
2017-09-13T09:33:55.206Z,53.3
2017-09-13T09:34:55.850Z,53.5
2017-09-13T09:35:56.494Z,53.6
2017-09-13T09:36:57.136Z,52.8
2017-09-13T09:37:57.785Z,53.4
2017-09-13T09:38:58.428Z,53.5
2017-09-13T09:39:59.072Z,52.8
2017-09-13T09:40:59.715Z,52.7
2017-09-13T09:42:00.360Z,52.9
2017-09-13T09:43:01.005Z,53.0
2017-09-13T09:44:01.649Z,53.0
2017-09-13T09:45:02.294Z,52.9
2017-09-13T09:46:03.189Z,52.8
2017-09-13T09:47:04.082Z,52.7
2017-09-13T09:48:05.027Z,52.9
2017-09-13T09:49:05.671Z,53.0
2017-09-13T09:50:06.314Z,52.7
2017-09-13T09:51:06.958Z,52.6
2017-09-13T09:52:07.604Z,52.7
2017-09-13T09:53:08.248Z,52.7
2017-09-13T09:54:08.890Z,52.9
2017-09-13T09:55:09.535Z,52.9
2017-09-13T09:56:10.179Z,53.5
2017-09-13T09:57:10.836Z,52.7
2017-09-13T09:58:11.468Z,52.7
2017-09-13T09:59:12.114Z,52.9
2017-09-13T10:00:12.765Z,53.3
2017-09-13T10:01:13.411Z,53.3
2017-09-13T10:02:14.053Z,52.5
2017-09-13T10:03:14.949Z,52.7
2017-09-13T10:04:15.845Z,52.6
2017-09-13T10:05:16.488Z,53.0
2017-09-13T10:06:17.130Z,52.5
2017-09-13T10:07:17.775Z,52.7
2017-09-13T10:08:18.418Z,52.2
2017-09-13T10:09:19.163Z,52.5
2017-09-13T10:10:19.907Z,52.9
2017-09-13T10:11:20.551Z,52.5
2017-09-13T10:12:21.194Z,52.4
2017-09-13T10:13:21.836Z,52.4
2017-09-13T10:14:22.480Z,52.5
2017-09-13T10:15:23.125Z,52.7
2017-09-13T10:16:23.767Z,52.7
2017-09-13T10:17:24.613Z,52.7
2017-09-13T10:18:25.256Z,52.5
2017-09-13T10:19:25.900Z,52.1
2017-09-13T10:20:26.794Z,52.5
2017-09-13T10:21:27.439Z,52.5
2017-09-13T10:22:28.083Z,52.3
2017-09-13T10:23:28.926Z,52.3
2017-09-13T10:24:29.720Z,52.5
2017-09-13T10:25:30.363Z,52.5
2017-09-13T10:26:31.008Z,52.7
2017-09-13T10:27:31.651Z,52.0
2017-09-13T10:28:32.397Z,52.2
2017-09-13T10:29:33.041Z,52.1
2017-09-13T10:30:33.683Z,52.7
2017-09-13T10:31:34.427Z,52.2
2017-09-13T10:32:35.071Z,52.1
2017-09-13T10:33:35.715Z,51.9
2017-09-13T10:34:36.360Z,52.4
2017-09-13T10:35:37.005Z,51.6
2017-09-13T10:36:37.650Z,52.2
2017-09-13T10:37:38.296Z,51.7
2017-09-13T10:38:38.940Z,51.7
2017-09-13T10:39:39.586Z,51.8
2017-09-13T10:40:40.230Z,51.8
2017-09-13T10:41:40.876Z,51.6
2017-09-13T10:42:41.519Z,51.7
2017-09-13T10:43:42.166Z,52.2
2017-09-13T10:44:42.810Z,52.0
2017-09-13T10:45:43.455Z,52.2
2017-09-13T10:46:44.550Z,52.5
2017-09-13T10:47:45.194Z,51.5
2017-09-13T10:48:45.838Z,51.3
2017-09-13T10:49:46.482Z,51.6
2017-09-13T10:50:47.128Z,51.6
2017-09-13T10:51:47.773Z,51.4
2017-09-13T10:52:48.420Z,51.7
2017-09-13T10:53:49.064Z,52.5
2017-09-13T10:54:49.710Z,51.4
2017-09-13T10:55:50.353Z,51.6
2017-09-13T10:56:50.999Z,51.8
2017-09-13T10:57:51.643Z,51.2
2017-09-13T10:58:52.287Z,51.6
2017-09-13T10:59:52.932Z,51.7
2017-09-13T11:00:53.574Z,51.6
2017-09-13T11:01:54.468Z,51.6
2017-09-13T11:02:55.110Z,51.3
2017-09-13T11:03:55.755Z,51.8
2017-09-13T11:04:56.400Z,51.0
2017-09-13T11:05:57.045Z,51.5
2017-09-13T11:06:57.690Z,51.2
2017-09-13T11:07:58.335Z,51.3
2017-09-13T11:08:59.329Z,51.3
2017-09-13T11:09:59.973Z,50.8
2017-09-13T11:11:00.716Z,51.2
2017-09-13T11:12:01.361Z,52.2
2017-09-13T11:13:02.006Z,51.6
2017-09-13T11:14:02.752Z,51.4
2017-09-13T11:15:03.397Z,51.4
2017-09-13T11:16:04.146Z,51.3
2017-09-13T11:17:04.789Z,51.2
2017-09-13T11:18:05.434Z,51.2
2017-09-13T11:19:06.083Z,51.2
2017-09-13T11:20:06.978Z,51.6
2017-09-13T11:21:07.771Z,51.4
2017-09-13T11:22:08.414Z,51.3
2017-09-13T11:23:09.161Z,51.5
2017-09-13T11:24:09.805Z,51.0
2017-09-13T11:25:10.450Z,50.7
2017-09-13T11:26:11.095Z,50.9
2017-09-13T11:27:11.888Z,51.0
2017-09-13T11:28:12.532Z,51.3
2017-09-13T11:29:13.177Z,51.3
2017-09-13T11:30:13.821Z,51.3
2017-09-13T11:31:14.664Z,51.0
2017-09-13T11:32:15.309Z,50.9
2017-09-13T11:33:15.953Z,50.6
2017-09-13T11:34:16.599Z,51.0
2017-09-13T11:35:17.243Z,50.7
2017-09-13T11:36:17.889Z,50.7
2017-09-13T11:37:18.533Z,51.0
2017-09-13T11:38:19.179Z,50.8
2017-09-13T11:39:19.822Z,51.0
2017-09-13T11:40:20.468Z,50.8
2017-09-13T11:41:21.113Z,50.6
2017-09-13T11:42:21.758Z,50.8
2017-09-13T11:43:22.402Z,50.9
2017-09-13T11:44:23.048Z,50.6
2017-09-13T11:45:23.694Z,50.7
2017-09-13T11:46:24.436Z,50.5
2017-09-13T11:47:25.099Z,50.1
2017-09-13T11:48:25.724Z,50.0
2017-09-13T11:49:26.368Z,50.4
2017-09-13T11:50:27.012Z,50.0
2017-09-13T11:51:27.654Z,50.5
2017-09-13T11:52:28.299Z,50.2
2017-09-13T11:53:28.942Z,50.3
2017-09-13T11:54:29.740Z,50.5
2017-09-13T11:55:30.383Z,50.3
2017-09-13T11:56:31.027Z,50.4
2017-09-13T11:57:31.672Z,50.3
2017-09-13T11:58:32.316Z,50.4
2017-09-13T11:59:32.961Z,50.5
2017-09-13T12:00:33.606Z,50.8
2017-09-13T12:01:34.352Z,50.6
2017-09-13T12:02:34.996Z,50.9
2017-09-13T12:03:35.640Z,50.3
2017-09-13T12:04:36.284Z,51.0
2017-09-13T12:05:36.928Z,50.5
2017-09-13T12:06:37.573Z,50.5
2017-09-13T12:07:38.218Z,50.5
2017-09-13T12:09:54.509Z,50.8
2017-09-13T12:10:55.154Z,50.5
2017-09-13T12:11:55.799Z,51.0
2017-09-13T12:12:56.443Z,50.8
2017-09-13T12:13:57.088Z,50.8
2017-09-13T12:14:57.734Z,51.2
2017-09-13T12:15:58.829Z,51.2
2017-09-13T12:16:59.476Z,51.3
2017-09-13T12:18:00.120Z,50.9
2017-09-13T12:19:00.765Z,50.9
2017-09-13T12:20:01.962Z,51.1
2017-09-13T12:21:02.706Z,50.9
2017-09-13T12:22:03.351Z,51.0
2017-09-13T12:23:04.095Z,51.0
2017-09-13T12:24:04.740Z,50.9
2017-09-13T12:25:05.386Z,50.9
2017-09-13T12:26:06.031Z,51.0
2017-09-13T12:27:06.778Z,51.0
2017-09-13T12:28:07.421Z,50.6
2017-09-13T12:29:08.064Z,50.5
2017-09-13T12:30:08.707Z,50.9
2017-09-13T12:31:09.604Z,50.5
2017-09-13T12:32:10.260Z,47.4
2017-09-13T12:33:10.905Z,45.8
2017-09-13T12:34:11.549Z,47.4
2017-09-13T12:35:12.194Z,47.5
2017-09-13T12:36:12.839Z,48.3
2017-09-13T12:37:13.485Z,47.9
2017-09-13T12:38:14.128Z,48.1
2017-09-13T12:39:14.774Z,48.5
2017-09-13T12:40:15.420Z,48.6
2017-09-13T12:41:16.070Z,48.8
2017-09-13T12:42:16.710Z,48.8
2017-09-13T12:43:17.507Z,48.9
2017-09-13T12:44:18.154Z,49.2
2017-09-13T12:45:18.798Z,49.3
2017-09-13T12:46:19.445Z,49.4
2017-09-13T12:47:20.092Z,49.5
2017-09-13T12:48:20.739Z,49.5
2017-09-13T12:49:21.384Z,49.8
2017-09-13T12:50:22.032Z,50.1
2017-09-13T12:51:22.676Z,50.5
2017-09-13T12:52:23.322Z,50.3
2017-09-13T12:53:23.968Z,50.4
2017-09-13T12:54:24.614Z,50.5
2017-09-13T12:55:25.360Z,50.6
2017-09-13T12:56:26.105Z,50.7
2017-09-13T12:57:26.750Z,50.6
2017-09-13T12:58:27.395Z,50.9
2017-09-13T12:59:28.042Z,51.1
2017-09-13T13:00:28.687Z,51.4
2017-09-13T13:01:29.433Z,50.8
2017-09-13T13:02:30.077Z,51.2
2017-09-13T13:03:30.721Z,51.0
2017-09-13T13:04:31.367Z,50.7
2017-09-13T13:05:32.363Z,50.6
2017-09-13T13:06:33.008Z,50.7
2017-09-13T13:07:33.653Z,50.7
2017-09-13T13:08:34.302Z,50.7
2017-09-13T13:09:34.944Z,50.8
2017-09-13T13:10:35.591Z,51.0
2017-09-13T13:11:36.236Z,50.8
2017-09-13T13:12:36.881Z,50.7
2017-09-13T13:13:37.527Z,50.4
2017-09-13T13:14:38.171Z,50.2
2017-09-13T13:15:38.816Z,50.3
2017-09-13T13:16:39.462Z,50.5
2017-09-13T13:17:40.112Z,50.5
2017-09-13T13:18:40.750Z,50.4
2017-09-13T13:19:41.393Z,50.4
2017-09-13T13:20:42.137Z,50.4
2017-09-13T13:21:42.780Z,50.4
2017-09-13T13:22:43.426Z,50.2
2017-09-13T13:23:44.070Z,50.2
2017-09-13T13:24:45.216Z,50.3
2017-09-13T13:25:45.861Z,50.5
2017-09-13T13:26:46.506Z,50.4
2017-09-13T13:27:47.150Z,50.5
2017-09-13T13:28:47.793Z,50.7
2017-09-13T13:29:48.440Z,50.5
2017-09-13T13:30:49.083Z,50.2
2017-09-13T13:31:49.828Z,50.4
2017-09-13T13:32:50.727Z,50.4
2017-09-13T13:33:51.368Z,50.7
2017-09-13T13:34:52.012Z,50.6
2017-09-13T13:35:52.655Z,50.3
2017-09-13T13:36:53.303Z,50.7
2017-09-13T13:37:53.944Z,50.6
2017-09-13T13:38:54.588Z,50.5
2017-09-13T13:39:55.233Z,50.2
2017-09-13T13:40:55.878Z,50.7
2017-09-13T13:41:56.522Z,50.2
2017-09-13T13:42:57.165Z,50.3
2017-09-13T13:43:57.809Z,50.2
2017-09-13T13:44:58.454Z,50.3
2017-09-13T13:45:59.099Z,50.6
2017-09-13T13:46:59.747Z,50.5
2017-09-13T13:48:00.489Z,50.6
2017-09-13T13:49:01.131Z,51.0
2017-09-13T13:50:01.776Z,50.9
2017-09-13T13:51:02.420Z,50.8
2017-09-13T13:52:03.264Z,50.5
2017-09-13T13:53:03.908Z,50.7
2017-09-13T13:54:04.551Z,51.0
2017-09-13T13:55:05.194Z,51.0
2017-09-13T13:56:05.837Z,51.0
2017-09-13T13:57:06.482Z,50.9
2017-09-13T13:58:07.125Z,50.8
2017-09-13T13:59:07.770Z,51.2
2017-09-13T14:00:08.413Z,51.0
2017-09-13T14:01:09.158Z,51.1
2017-09-13T14:02:09.804Z,51.1
2017-09-13T14:03:10.448Z,51.0
2017-09-13T14:04:11.095Z,50.9
2017-09-13T14:05:11.739Z,50.8
2017-09-13T14:06:12.387Z,51.2
2017-09-13T14:07:13.029Z,51.2
2017-09-13T14:08:13.673Z,51.1
2017-09-13T14:09:14.416Z,51.5
2017-09-13T14:10:15.059Z,51.5
2017-09-13T14:11:15.703Z,51.7
2017-09-13T14:12:16.348Z,51.7
2017-09-13T14:13:16.991Z,51.5
2017-09-13T14:14:17.636Z,51.6
2017-09-13T14:15:18.528Z,51.7
2017-09-13T14:16:19.171Z,51.7
2017-09-13T14:17:19.916Z,52.3
2017-09-13T14:18:20.660Z,52.4
2017-09-13T14:19:21.307Z,51.7
2017-09-13T14:20:22.050Z,51.6
2017-09-13T14:21:22.693Z,52.7
2017-09-13T14:22:23.436Z,52.1
2017-09-13T14:23:24.180Z,52.2
2017-09-13T14:24:24.824Z,51.6
2017-09-13T14:25:25.481Z,52.1
2017-09-13T14:26:26.110Z,52.8
2017-09-13T14:27:26.754Z,52.2
2017-09-13T14:28:27.398Z,52.2
2017-09-13T14:29:28.040Z,52.1
2017-09-13T14:30:28.685Z,52.6
2017-09-13T14:31:29.428Z,52.6
2017-09-13T14:32:30.071Z,52.5
2017-09-13T14:33:30.916Z,52.5
2017-09-13T14:34:31.561Z,52.1
2017-09-13T14:35:32.206Z,52.6
2017-09-13T14:36:32.851Z,52.5
2017-09-13T14:37:33.495Z,52.3
2017-09-13T14:38:34.144Z,51.6
2017-09-13T14:39:34.793Z,51.1
2017-09-13T14:40:35.438Z,51.4
2017-09-13T14:41:36.081Z,51.3
2017-09-13T14:42:36.726Z,51.0
2017-09-13T14:43:37.369Z,51.2
2017-09-13T14:44:38.016Z,50.8
2017-09-13T14:45:38.659Z,51.1
2017-09-13T14:46:39.305Z,51.2
2017-09-13T14:47:39.949Z,51.0
2017-09-13T14:48:40.594Z,51.3
2017-09-13T14:49:41.244Z,51.1
2017-09-13T14:50:41.885Z,51.1
2017-09-13T14:51:42.530Z,51.0
2017-09-13T14:52:43.726Z,50.8
2017-09-13T14:53:44.369Z,50.5
2017-09-13T14:54:45.013Z,50.8
2017-09-13T14:55:45.808Z,51.0
2017-09-13T14:56:46.451Z,51.0
2017-09-13T14:57:47.093Z,51.0
2017-09-13T14:58:47.889Z,51.0
2017-09-13T14:59:48.533Z,50.6
2017-09-13T15:00:49.276Z,50.6
2017-09-13T15:01:50.021Z,50.6
2017-09-13T15:02:50.665Z,50.1
2017-09-13T15:03:51.309Z,50.5
2017-09-13T15:04:51.955Z,50.8
2017-09-13T15:05:52.599Z,50.2
2017-09-13T15:06:53.245Z,50.3
2017-09-13T15:07:53.890Z,50.3
2017-09-13T15:08:54.537Z,50.4
2017-09-13T15:09:55.632Z,50.0
2017-09-13T15:10:56.275Z,50.2
2017-09-13T15:11:56.922Z,50.2
2017-09-13T15:12:57.566Z,49.7
2017-09-13T15:13:58.212Z,50.2
2017-09-13T15:14:58.858Z,50.4
2017-09-13T15:15:59.501Z,50.3
2017-09-13T15:17:00.146Z,49.5
2017-09-13T15:18:00.791Z,49.7
2017-09-13T15:19:01.437Z,49.1
2017-09-13T15:20:02.083Z,49.5
2017-09-13T15:21:02.727Z,49.2
2017-09-13T15:22:03.373Z,49.1
2017-09-13T15:23:04.019Z,49.1
2017-09-13T15:24:04.669Z,49.0
2017-09-13T15:25:05.565Z,49.2
2017-09-13T15:26:06.211Z,49.0
2017-09-13T15:27:06.864Z,48.5
2017-09-13T15:28:07.502Z,49.0
2017-09-13T15:29:08.153Z,48.9
2017-09-13T15:30:08.791Z,49.1
2017-09-13T15:31:09.687Z,48.8
2017-09-13T15:32:10.413Z,48.7
2017-09-13T15:33:11.307Z,48.2
2017-09-13T15:34:11.952Z,48.5
2017-09-13T15:35:12.598Z,48.7
2017-09-13T15:36:13.242Z,48.7
2017-09-13T15:37:13.887Z,48.9
2017-09-13T15:38:14.681Z,48.7
2017-09-13T15:39:15.324Z,48.8
2017-09-13T15:40:15.969Z,48.4
2017-09-13T15:41:16.613Z,48.5
2017-09-13T15:42:17.257Z,48.3
2017-09-13T15:43:18.053Z,48.6
2017-09-13T15:44:18.704Z,48.5
2017-09-13T15:45:19.344Z,48.8
2017-09-13T15:46:19.993Z,48.4
2017-09-13T15:47:20.634Z,48.9
2017-09-13T15:48:21.282Z,48.4
2017-09-13T15:49:21.925Z,49.0
2017-09-13T15:50:22.573Z,49.1
2017-09-13T15:51:23.217Z,48.7
2017-09-13T15:52:23.863Z,48.6
2017-09-13T15:53:24.509Z,48.9
2017-09-13T15:54:25.154Z,48.7
2017-09-13T15:55:25.799Z,48.7
2017-09-13T15:56:26.445Z,48.5
2017-09-13T15:57:27.089Z,48.2
2017-09-13T15:58:27.735Z,48.8
2017-09-13T15:59:28.380Z,48.3
2017-09-13T16:00:29.030Z,48.7
2017-09-13T16:01:29.823Z,49.2
2017-09-13T16:02:30.466Z,49.4
2017-09-13T16:03:31.111Z,50.4
2017-09-13T16:04:31.755Z,50.2
2017-09-13T16:05:32.400Z,50.5
2017-09-13T16:06:33.043Z,50.3
2017-09-13T16:07:33.686Z,50.3
2017-09-13T16:08:34.328Z,50.7
2017-09-13T16:09:34.970Z,50.5
2017-09-13T16:10:35.614Z,50.5
2017-09-13T16:11:36.256Z,50.2
2017-09-13T16:12:36.900Z,50.5
2017-09-13T16:13:37.544Z,50.4
2017-09-13T16:14:38.188Z,51.0
2017-09-13T16:15:38.832Z,50.7
2017-09-13T16:16:39.726Z,50.7
2017-09-13T16:17:40.868Z,50.5
2017-09-13T16:18:41.511Z,50.5
2017-09-13T16:19:42.905Z,51.0
2017-09-13T16:20:43.548Z,50.7
2017-09-13T16:21:44.190Z,50.8
2017-09-13T16:22:44.833Z,51.0
2017-09-13T16:23:45.832Z,50.8
2017-09-13T16:24:46.470Z,51.0
2017-09-13T16:25:47.120Z,50.9
2017-09-13T16:26:47.753Z,51.1
2017-09-13T16:27:48.396Z,51.1
2017-09-13T16:28:49.039Z,51.3
2017-09-13T16:29:49.683Z,51.4
2017-09-13T16:30:50.327Z,51.2
2017-09-13T16:31:51.171Z,51.5
2017-09-13T16:32:52.164Z,51.4
2017-09-13T16:33:52.806Z,51.0
2017-09-13T16:34:53.449Z,51.2
2017-09-13T16:35:54.097Z,51.3
2017-09-13T16:36:54.739Z,51.3
2017-09-13T16:37:55.380Z,51.6
2017-09-13T16:38:56.024Z,51.5
2017-09-13T16:39:56.665Z,51.4
2017-09-13T16:40:57.309Z,51.6
2017-09-13T16:41:57.951Z,51.9
2017-09-13T16:42:58.596Z,51.8
2017-09-13T16:43:59.238Z,51.8
2017-09-13T16:44:59.879Z,51.7
2017-09-13T16:46:00.521Z,51.4
2017-09-13T16:47:01.163Z,51.7
2017-09-13T16:48:01.906Z,51.5
2017-09-13T16:49:02.551Z,51.8
2017-09-13T16:50:03.194Z,51.5
2017-09-13T16:51:03.837Z,51.8
2017-09-13T16:52:04.506Z,51.8
2017-09-13T16:53:05.602Z,51.8
2017-09-13T16:54:06.243Z,51.7
2017-09-13T16:55:06.887Z,51.8
2017-09-13T16:56:07.530Z,51.7
2017-09-13T16:57:08.321Z,52.3
2017-09-13T16:58:09.313Z,52.2
2017-09-13T16:59:09.955Z,52.2
2017-09-13T17:00:10.697Z,52.0
2017-09-13T17:01:11.540Z,52.2
2017-09-13T17:02:12.182Z,52.4
2017-09-13T17:03:12.824Z,52.3
2017-09-13T17:04:13.466Z,52.4
2017-09-13T17:05:14.109Z,51.7
2017-09-13T17:06:14.752Z,51.7
2017-09-13T17:07:15.395Z,51.7
2017-09-13T17:08:16.038Z,51.6
2017-09-13T17:09:16.831Z,50.5
2017-09-13T17:10:17.474Z,50.5
2017-09-13T17:11:18.115Z,50.5
2017-09-13T17:12:18.759Z,51.0
2017-09-13T17:13:19.403Z,50.7
2017-09-13T17:14:20.046Z,50.8
2017-09-13T17:15:20.689Z,51.3
2017-09-13T17:16:21.332Z,51.1
2017-09-13T17:17:21.975Z,51.4
2017-09-13T17:18:22.616Z,51.5
2017-09-13T17:19:23.257Z,51.4
2017-09-13T17:20:23.899Z,51.6
2017-09-13T17:21:24.542Z,51.7
2017-09-13T17:22:25.185Z,51.9
2017-09-13T17:23:25.827Z,51.6
2017-09-13T17:24:26.721Z,51.7
2017-09-13T17:25:27.362Z,52.2
2017-09-13T17:26:28.003Z,52.5
2017-09-13T17:27:28.896Z,52.3
2017-09-13T17:28:29.540Z,52.4
2017-09-13T17:29:30.187Z,52.1
2017-09-13T17:30:30.827Z,52.2
2017-09-13T17:31:31.470Z,52.2
2017-09-13T17:32:32.113Z,52.4
2017-09-13T17:33:33.256Z,52.1
2017-09-13T17:34:34.099Z,52.0
2017-09-13T17:35:34.746Z,52.1
2017-09-13T17:36:35.388Z,52.2
2017-09-13T17:37:36.032Z,51.9
2017-09-13T17:38:36.676Z,52.1
2017-09-13T17:39:37.318Z,52.1
2017-09-13T17:40:37.963Z,52.1
2017-09-13T17:41:38.605Z,52.3
2017-09-13T17:42:39.248Z,52.1
2017-09-13T17:43:39.889Z,52.8
2017-09-13T17:44:40.533Z,52.1
2017-09-13T17:45:41.180Z,52.7
2017-09-13T17:46:41.818Z,52.0
2017-09-13T17:47:42.461Z,52.1
2017-09-13T17:48:43.103Z,52.7
2017-09-13T17:49:43.843Z,52.5
2017-09-13T17:50:44.488Z,52.5
2017-09-13T17:51:45.128Z,52.6
2017-09-13T17:52:45.771Z,52.5
2017-09-13T17:53:46.414Z,52.4
2017-09-13T17:54:47.059Z,52.5
2017-09-13T17:55:47.700Z,52.3
2017-09-13T17:56:48.342Z,52.4
2017-09-13T17:57:48.983Z,52.5
2017-09-13T17:58:49.627Z,52.5
2017-09-13T17:59:50.265Z,52.7
2017-09-13T18:00:50.906Z,52.4
2017-09-13T18:01:51.950Z,52.5
2017-09-13T18:02:52.592Z,52.6
2017-09-13T18:03:53.234Z,52.6
2017-09-13T18:04:53.876Z,52.5
2017-09-13T18:05:54.514Z,52.3
2017-09-13T18:06:55.156Z,52.8
2017-09-13T18:07:55.801Z,52.5
2017-09-13T18:08:56.442Z,52.1
2017-09-13T18:09:57.086Z,52.3
2017-09-13T18:10:57.728Z,52.2
2017-09-13T18:11:58.370Z,52.4
2017-09-13T18:12:59.014Z,52.7
2017-09-13T18:13:59.655Z,52.9
2017-09-13T18:15:00.298Z,52.7
2017-09-13T18:16:00.939Z,52.4
2017-09-13T18:17:01.737Z,52.4
2017-09-13T18:18:02.377Z,52.9
2017-09-13T18:19:03.014Z,52.7
2017-09-13T18:20:03.657Z,52.9
2017-09-13T18:21:04.299Z,52.8
2017-09-13T18:22:04.940Z,52.7
2017-09-13T18:23:05.583Z,52.7
2017-09-13T18:24:06.228Z,52.9
2017-09-13T18:25:06.869Z,52.9
2017-09-13T18:26:07.513Z,52.9
2017-09-13T18:27:08.158Z,52.9
2017-09-13T18:28:08.795Z,52.8
2017-09-13T18:29:09.439Z,52.8
2017-09-13T18:30:10.078Z,52.8
2017-09-13T18:31:10.721Z,52.7
2017-09-13T18:32:11.685Z,52.6
2017-09-13T18:33:12.327Z,52.7
2017-09-13T18:34:12.970Z,52.7
2017-09-13T18:35:13.612Z,52.8
2017-09-13T18:36:14.255Z,52.7
2017-09-13T18:37:14.896Z,52.5
2017-09-13T18:38:15.539Z,52.7
2017-09-13T18:39:16.180Z,52.9
2017-09-13T18:40:16.822Z,52.7
2017-09-13T18:41:17.463Z,52.6
2017-09-13T18:42:18.104Z,53.0
2017-09-13T18:43:18.745Z,52.7
2017-09-13T18:44:19.387Z,52.8
2017-09-13T18:45:20.029Z,52.9
2017-09-13T18:46:20.669Z,53.0
2017-09-13T18:47:21.463Z,52.6
2017-09-13T18:48:22.105Z,52.8
2017-09-13T18:49:22.749Z,52.7
2017-09-13T18:50:23.391Z,53.0
2017-09-13T18:51:24.030Z,52.6
2017-09-13T18:52:24.671Z,53.0
2017-09-13T18:53:25.311Z,53.0
2017-09-13T18:54:25.952Z,53.0
2017-09-13T18:55:26.595Z,52.6
2017-09-13T18:56:27.235Z,52.8
2017-09-13T18:57:27.877Z,53.5
2017-09-13T18:58:28.520Z,53.4
2017-09-13T18:59:29.161Z,53.3
2017-09-13T19:00:29.802Z,53.4
2017-09-13T19:01:30.444Z,53.5
2017-09-13T19:02:31.189Z,53.3
2017-09-13T19:03:31.829Z,53.5
2017-09-13T19:04:32.469Z,53.5
2017-09-13T19:05:33.110Z,53.2
2017-09-13T19:06:33.751Z,53.3
2017-09-13T19:07:34.392Z,53.4
2017-09-13T19:08:35.033Z,53.3
2017-09-13T19:09:35.675Z,53.0
2017-09-13T19:10:36.317Z,53.2
2017-09-13T19:11:36.957Z,53.4
2017-09-13T19:12:37.600Z,53.2
2017-09-13T19:13:38.242Z,53.3
2017-09-13T19:14:38.885Z,53.2
2017-09-13T19:15:39.527Z,53.6
2017-09-13T19:16:40.166Z,53.5
2017-09-13T19:17:41.057Z,53.2
2017-09-13T19:18:41.698Z,53.6
2017-09-13T19:19:42.340Z,53.6
2017-09-13T19:20:42.981Z,53.2
2017-09-13T19:21:43.624Z,53.1
2017-09-13T19:22:44.266Z,53.3
2017-09-13T19:23:44.907Z,53.1
2017-09-13T19:24:45.548Z,53.4
2017-09-13T19:25:46.189Z,53.1
2017-09-13T19:26:46.831Z,53.4
2017-09-13T19:27:48.072Z,53.3
2017-09-13T19:28:48.714Z,53.5
2017-09-13T19:29:49.355Z,53.6
2017-09-13T19:30:49.997Z,52.9
2017-09-13T19:31:50.640Z,53.3
2017-09-13T19:32:51.284Z,53.2
2017-09-13T19:33:51.925Z,53.5
2017-09-13T19:34:52.570Z,53.3
2017-09-13T19:35:53.211Z,53.3
2017-09-13T19:36:53.853Z,53.3
2017-09-13T19:37:54.495Z,53.1
2017-09-13T19:38:55.136Z,53.0
2017-09-13T19:39:55.778Z,53.6
2017-09-13T19:40:56.418Z,53.3
2017-09-13T19:41:57.060Z,52.9
2017-09-13T19:42:57.950Z,53.3
2017-09-13T19:43:58.592Z,53.3
2017-09-13T19:44:59.234Z,53.4
2017-09-13T19:45:59.875Z,53.2
2017-09-13T19:47:00.521Z,53.4
2017-09-13T19:48:01.154Z,53.3
2017-09-13T19:49:01.797Z,53.2